Terminal Aerodrome Forecast
Issued by NWS Sioux Falls, SD

Home | Current Version | Previous Version | Text Only | Print | Product List | Glossary On
Versions: 1 2 3 4 5 6 7 8 9 10 11 12 13 14 15 16 17 18 19 20 21 22
000
FTUS43 KFSD 171739
TAFHON
TAF
KHON 171739Z 1718/1818 21015G20KT P6SM FEW250
     FM180000 19010KT P6SM VCTS BKN100CB
     FM180700 16005KT P6SM BKN200
     FM180900 12004KT P6SM BKN150
     FM181600 07009KT P6SM BKN120=

USA.gov is the U.S. government's official web portal to all federal, state and local government web resources and services.